Time;durP1;ratioP1;P1;durP2;ratioP2;P2;SDS_P1;SDS_P2;PMS_P1;PMS_P2;Temp;Humidity;BMP_temperature;BMP_pressure;BME280_temperature;BME280_humidity;BME280_pressure;Samples;Min_cycle;Max_cycle;Signal;HPM_P1;HPM_P2
2021/06/14 00:01:29;;;;;;;;;;;;;;;24.64;57.39;101075.00;5054026;28;859;-90
2021/06/14 00:03:54;;;;;;;;;;;;;;;24.63;58.19;101067.88;5054949;28;864;-85
2021/06/14 00:06:19;;;;;;;;;;;;;;;24.66;58.29;101062.56;5052307;28;1359;-81
2021/06/14 00:08:45;;;;;;;;;;;;;;;24.69;57.01;101061.94;5053154;28;886;-75
2021/06/14 00:11:10;;;;;;;;;;;;;;;24.69;57.14;101061.13;5050436;28;1167;-74
2021/06/14 00:13:36;;;;;;;;;;;;;;;24.76;58.07;101050.47;5048945;28;1935;-79
2021/06/14 00:16:02;;;;;;;;;;;;;;;24.72;56.62;101050.28;5048913;28;1500;-79
2021/06/14 00:18:27;;;;;;;;;;;;;;;24.67;57.37;101047.66;5053300;28;822;-88
2021/06/14 00:20:57;;;;;;;;;;;;;;;24.66;57.08;101046.03;5053467;28;889;-89
2021/06/14 00:23:24;;;;;;;;;;;;;;;24.63;57.16;101045.84;5060231;28;1254;-91
2021/06/14 00:25:50;;;;;;;;;;;;;;;24.62;56.34;101052.47;5053061;28;1195;-88
2021/06/14 00:28:16;;;;;;;;;;;;;;;24.67;58.90;101046.84;5053459;28;876;-79
2021/06/14 00:30:43;;;;;;;;;;;;;;;24.62;57.91;101046.97;5053115;28;1563;-84
2021/06/14 00:33:09;;;;;;;;;;;;;;;24.70;57.36;101049.78;5051457;28;1971;-77
2021/06/14 00:35:34;;;;;;;;;;;;;;;24.61;56.35;101048.94;5033082;28;871;-79
2021/06/14 00:38:00;;;;;;;;;;;;;;;24.58;56.86;101048.72;5049570;28;1998;-77
2021/06/14 00:40:25;;;;;;;;;;;;;;;24.63;57.03;101052.19;5037093;28;1585;-76
2021/06/14 00:42:51;;;;;;;;;;;;;;;24.60;56.90;101058.31;5050533;28;1515;-80
2021/06/14 00:45:17;;;;;;;;;;;;;;;24.60;57.72;101054.75;5039753;28;999;-77
2021/06/14 00:47:43;;;;;;;;;;;;;;;24.64;56.93;101064.00;5031961;28;830;-79
2021/06/14 00:50:09;;;;;;;;;;;;;;;24.62;56.19;101056.03;5035292;28;1274;-75
2021/06/14 00:52:35;;;;;;;;;;;;;;;24.59;55.93;101059.44;5050063;28;1815;-76
2021/06/14 00:55:00;;;;;;;;;;;;;;;24.54;57.41;101056.00;5047300;28;1889;-75
2021/06/14 00:57:25;;;;;;;;;;;;;;;24.53;58.20;101057.94;5044119;28;2035;-76
2021/06/14 00:59:52;;;;;;;;;;;;;;;24.59;56.89;101048.44;5049645;28;2078;-80
2021/06/14 01:02:17;;;;;;;;;;;;;;;24.57;57.43;101058.94;5052356;28;819;-75
2021/06/14 01:04:42;;;;;;;;;;;;;;;24.49;59.02;101056.91;5036731;28;1700;-75
2021/06/14 01:07:08;;;;;;;;;;;;;;;24.52;57.62;101053.53;5046852;28;1728;-77
2021/06/14 01:09:33;;;;;;;;;;;;;;;24.52;57.77;101051.59;5030264;28;1191;-76
2021/06/14 01:12:08;;;;;;;;;;;;;;;24.51;57.81;101052.75;5033374;28;2083;-76
2021/06/14 01:14:55;;;;;;;;;;;;;;;24.49;57.70;101051.41;5067485;28;1881;-80
2021/06/14 01:17:39;;;;;;;;;;;;;;;24.44;58.13;101048.75;5071017;28;1603;-78
2021/06/14 01:20:23;;;;;;;;;;;;;;;24.43;57.43;101045.22;5033704;28;893;-74
2021/06/14 01:22:58;;;;;;;;;;;;;;;24.51;56.93;101046.44;5045591;28;811;-80
2021/06/14 01:25:34;;;;;;;;;;;;;;;24.47;58.53;101046.22;5032876;28;1197;-79
2021/06/14 01:28:00;;;;;;;;;;;;;;;24.43;59.33;101049.91;5046472;28;842;-88
2021/06/14 01:30:30;;;;;;;;;;;;;;;24.43;57.92;101042.44;5051227;28;1629;-80
2021/06/14 01:32:56;;;;;;;;;;;;;;;24.41;57.27;101046.63;5050874;28;1310;-81
2021/06/14 01:35:27;;;;;;;;;;;;;;;24.39;57.95;101044.22;5046697;28;1975;-76
2021/06/14 01:37:54;;;;;;;;;;;;;;;24.38;57.76;101045.31;5046409;28;957;-77
2021/06/14 01:40:20;;;;;;;;;;;;;;;24.36;57.43;101046.78;5041998;28;1559;-76
2021/06/14 01:42:47;;;;;;;;;;;;;;;24.33;57.17;101037.19;5031076;28;1658;-76
2021/06/14 01:45:13;;;;;;;;;;;;;;;24.37;55.94;101045.63;5039521;28;885;-76
2021/06/14 01:47:39;;;;;;;;;;;;;;;24.36;56.41;101039.31;5042876;28;2070;-76
2021/06/14 01:50:04;;;;;;;;;;;;;;;24.46;56.30;101033.56;5042603;28;1885;-77
2021/06/14 01:52:30;;;;;;;;;;;;;;;24.46;55.62;101028.03;5038910;28;786;-77
2021/06/14 01:54:56;;;;;;;;;;;;;;;24.43;55.97;101023.19;5033411;28;1983;-78
2021/06/14 01:57:22;;;;;;;;;;;;;;;24.42;56.29;101029.81;5031708;28;834;-77
2021/06/14 01:59:49;;;;;;;;;;;;;;;24.30;56.53;101033.13;5034895;28;1658;-84
2021/06/14 02:02:15;;;;;;;;;;;;;;;24.26;56.00;101034.88;5040309;28;1014;-82
2021/06/14 02:04:42;;;;;;;;;;;;;;;24.32;57.88;101033.63;5049365;28;3007;-85
2021/06/14 02:07:07;;;;;;;;;;;;;;;24.44;56.66;101035.81;5035711;28;871;-82
2021/06/14 02:09:33;;;;;;;;;;;;;;;24.31;55.73;101032.00;5035993;28;860;-84
2021/06/14 02:12:00;;;;;;;;;;;;;;;24.24;56.08;101028.84;5035718;28;1113;-82
2021/06/14 02:14:27;;;;;;;;;;;;;;;24.25;55.76;101044.25;5047143;28;1902;-74
2021/06/14 02:16:54;;;;;;;;;;;;;;;24.21;56.22;101026.75;5052671;28;1117;-74
2021/06/14 02:19:19;;;;;;;;;;;;;;;24.15;56.45;101036.25;5052820;28;1307;-74
2021/06/14 02:21:45;;;;;;;;;;;;;;;24.10;55.99;101039.09;5052816;28;1211;-73
2021/06/14 02:24:11;;;;;;;;;;;;;;;24.09;55.98;101038.31;5052711;28;896;-74
2021/06/14 02:26:37;;;;;;;;;;;;;;;24.04;55.86;101032.09;5052715;28;1131;-74
2021/06/14 02:29:03;;;;;;;;;;;;;;;24.01;55.32;101036.28;5051274;28;1176;-74
2021/06/14 02:31:28;;;;;;;;;;;;;;;24.02;55.61;101037.09;5065791;28;1421;-74
2021/06/14 02:33:54;;;;;;;;;;;;;;;24.01;55.94;101041.00;5073661;28;1902;-74
2021/06/14 02:36:20;;;;;;;;;;;;;;;24.01;55.72;101035.50;5073317;28;917;-74
2021/06/14 02:38:46;;;;;;;;;;;;;;;24.00;56.30;101042.91;5073560;28;869;-74
2021/06/14 02:41:12;;;;;;;;;;;;;;;24.04;56.54;101040.34;5074145;28;1058;-80
2021/06/14 02:43:38;;;;;;;;;;;;;;;24.11;55.99;101043.50;5075024;28;890;-78
2021/06/14 02:46:04;;;;;;;;;;;;;;;24.11;55.78;101044.31;5073826;28;917;-75
2021/06/14 02:48:30;;;;;;;;;;;;;;;24.08;55.33;101046.84;5073738;28;1255;-75
2021/06/14 02:50:56;;;;;;;;;;;;;;;24.03;56.17;101045.06;5073391;28;1020;-75
2021/06/14 02:53:22;;;;;;;;;;;;;;;24.01;56.31;101052.81;5073550;28;1870;-75
2021/06/14 02:56:02;;;;;;;;;;;;;;;24.01;55.24;101046.50;5070842;28;2170;-75
2021/06/14 02:58:33;;;;;;;;;;;;;;;24.00;55.63;101050.34;5052977;28;1148;-75
2021/06/14 03:00:59;;;;;;;;;;;;;;;24.00;55.64;101053.91;5052652;28;957;-75
2021/06/14 03:03:25;;;;;;;;;;;;;;;24.00;55.39;101055.84;5053112;28;884;-75
2021/06/14 03:05:51;;;;;;;;;;;;;;;23.98;55.28;101060.84;5053409;28;814;-75
2021/06/14 03:08:19;;;;;;;;;;;;;;;24.07;56.96;101059.00;5054624;28;874;-79
2021/06/14 03:10:45;;;;;;;;;;;;;;;24.11;56.45;101060.00;5052204;28;1211;-78
2021/06/14 03:13:10;;;;;;;;;;;;;;;24.08;56.46;101060.63;5054876;28;814;-78
2021/06/14 03:15:36;;;;;;;;;;;;;;;24.07;56.10;101057.06;5053650;28;1874;-75
2021/06/14 03:18:02;;;;;;;;;;;;;;;24.06;55.64;101060.91;5052964;28;1145;-76
2021/06/14 03:20:28;;;;;;;;;;;;;;;24.05;55.11;101070.31;5052857;28;1311;-76
2021/06/14 03:22:53;;;;;;;;;;;;;;;24.07;55.54;101061.75;5054121;28;810;-80
2021/06/14 03:25:19;;;;;;;;;;;;;;;24.09;55.74;101074.06;5054411;28;872;-79
2021/06/14 03:27:45;;;;;;;;;;;;;;;24.04;56.21;101078.88;5054193;28;867;-79
2021/06/14 03:30:11;;;;;;;;;;;;;;;23.98;55.77;101072.66;5054266;28;884;-80
2021/06/14 03:32:39;;;;;;;;;;;;;;;23.99;55.95;101084.50;5052804;28;1300;-79
2021/06/14 03:35:05;;;;;;;;;;;;;;;23.97;56.15;101081.25;5054202;28;1909;-79
2021/06/14 03:37:32;;;;;;;;;;;;;;;23.97;55.82;101078.50;5054019;28;1344;-80
2021/06/14 03:39:57;;;;;;;;;;;;;;;23.94;55.77;101077.16;5054047;28;811;-74
2021/06/14 03:42:24;;;;;;;;;;;;;;;24.02;54.45;101073.69;5053319;28;870;-77
2021/06/14 03:44:50;;;;;;;;;;;;;;;24.02;54.93;101084.69;5053516;28;814;-77
2021/06/14 03:47:15;;;;;;;;;;;;;;;24.05;55.51;101089.56;5052726;28;1480;-78
2021/06/14 03:49:40;;;;;;;;;;;;;;;24.10;55.21;101089.44;5051567;28;1821;-74
2021/06/14 03:52:06;;;;;;;;;;;;;;;24.11;55.36;101090.28;5043378;28;1813;-74
2021/06/14 03:54:31;;;;;;;;;;;;;;;23.99;54.45;101090.00;5039176;28;1882;-74
2021/06/14 03:56:56;;;;;;;;;;;;;;;23.92;55.08;101088.50;5043220;28;1739;-75
2021/06/14 03:59:22;;;;;;;;;;;;;;;24.05;55.28;101086.03;5043176;28;1740;-73
2021/06/14 04:01:47;;;;;;;;;;;;;;;23.72;53.97;101073.22;5046484;28;1842;-72
2021/06/14 04:04:36;;;;;;;;;;;;;;;23.72;55.10;101081.47;5039002;28;1986;-73
2021/06/14 04:07:02;;;;;;;;;;;;;;;23.72;55.14;101080.63;5042481;28;1764;-73
2021/06/14 04:09:27;;;;;;;;;;;;;;;23.57;54.04;101076.28;5032012;28;1123;-73
2021/06/14 04:11:53;;;;;;;;;;;;;;;23.54;54.05;101082.38;5031276;28;972;-73
2021/06/14 04:14:18;;;;;;;;;;;;;;;23.52;54.20;101076.34;5030831;28;1931;-73
2021/06/14 04:16:43;;;;;;;;;;;;;;;23.52;54.25;101079.94;5040468;28;1961;-73
2021/06/14 04:19:08;;;;;;;;;;;;;;;23.52;54.12;101088.19;5038949;28;2022;-73
2021/06/14 04:21:34;;;;;;;;;;;;;;;23.53;53.82;101081.56;5042137;28;839;-73
2021/06/14 04:23:59;;;;;;;;;;;;;;;23.53;53.40;101084.31;5034585;28;1771;-73
2021/06/14 04:26:24;;;;;;;;;;;;;;;23.57;53.51;101081.78;5040867;28;1741;-73
2021/06/14 04:28:50;;;;;;;;;;;;;;;23.54;53.59;101087.88;5040084;28;2023;-73
2021/06/14 04:31:15;;;;;;;;;;;;;;;23.76;53.88;101092.63;5039070;28;889;-76
2021/06/14 04:33:40;;;;;;;;;;;;;;;23.97;54.19;101089.50;5051538;28;1973;-79
2021/06/14 04:36:06;;;;;;;;;;;;;;;23.81;54.14;101095.31;5052163;28;1437;-79
2021/06/14 04:38:32;;;;;;;;;;;;;;;23.69;55.26;101092.25;5052896;28;874;-79
2021/06/14 04:40:57;;;;;;;;;;;;;;;23.71;55.52;101095.50;5052838;28;748;-81
2021/06/14 04:43:22;;;;;;;;;;;;;;;23.80;55.54;101098.38;5051421;28;916;-74
2021/06/14 04:45:48;;;;;;;;;;;;;;;23.85;54.50;101107.34;5043246;28;1674;-79
2021/06/14 04:48:13;;;;;;;;;;;;;;;23.87;55.03;101107.03;5033769;28;1191;-80
2021/06/14 04:50:38;;;;;;;;;;;;;;;23.79;55.84;101099.50;5032656;28;1543;-73
2021/06/14 04:53:03;;;;;;;;;;;;;;;23.76;55.63;101100.88;5043219;28;2213;-74
2021/06/14 04:55:29;;;;;;;;;;;;;;;23.72;55.42;101102.63;5049404;28;1949;-71
2021/06/14 04:57:54;;;;;;;;;;;;;;;23.84;54.11;101102.94;5049188;28;854;-74
2021/06/14 05:00:20;;;;;;;;;;;;;;;23.86;53.58;101097.94;5049177;28;842;-73
2021/06/14 05:02:46;;;;;;;;;;;;;;;23.89;54.20;101091.84;5049293;28;794;-73
2021/06/14 05:05:11;;;;;;;;;;;;;;;23.97;53.86;101087.56;5047990;28;1266;-75
2021/06/14 05:07:37;;;;;;;;;;;;;;;23.99;53.65;101090.81;5048818;28;959;-74
2021/06/14 05:10:03;;;;;;;;;;;;;;;23.90;54.08;101089.91;5047300;28;1705;-81
2021/06/14 05:12:28;;;;;;;;;;;;;;;23.94;53.63;101085.41;5038167;28;886;-73
2021/06/14 05:14:53;;;;;;;;;;;;;;;23.90;54.11;101084.41;5028863;28;1940;-74
2021/06/14 05:17:19;;;;;;;;;;;;;;;23.79;53.57;101089.31;5029001;28;1078;-73
2021/06/14 05:19:45;;;;;;;;;;;;;;;23.80;54.19;101084.63;5031687;28;1724;-73
2021/06/14 05:22:10;;;;;;;;;;;;;;;23.76;53.69;101084.38;5038530;28;1660;-74
2021/06/14 05:24:35;;;;;;;;;;;;;;;23.65;54.23;101070.06;5041825;28;1667;-73
2021/06/14 05:27:01;;;;;;;;;;;;;;;23.64;54.44;101078.59;5045494;28;1509;-74
2021/06/14 05:29:26;;;;;;;;;;;;;;;23.66;53.33;101079.09;5042318;28;1483;-73
2021/06/14 05:31:52;;;;;;;;;;;;;;;23.66;53.49;101074.44;5038705;28;1498;-74
2021/06/14 05:34:17;;;;;;;;;;;;;;;23.65;54.69;101070.06;5034068;28;1933;-73
2021/06/14 05:36:42;;;;;;;;;;;;;;;23.88;54.81;101070.94;5034305;28;1575;-78
2021/06/14 05:39:08;;;;;;;;;;;;;;;23.88;54.77;101068.19;5042273;28;1135;-78
2021/06/14 05:41:33;;;;;;;;;;;;;;;23.96;55.00;101074.09;5043416;28;1352;-78
2021/06/14 05:43:58;;;;;;;;;;;;;;;23.95;55.03;101078.81;5028728;28;838;-73
2021/06/14 05:46:25;;;;;;;;;;;;;;;24.03;55.12;101075.31;5029032;28;807;-74
2021/06/14 05:48:50;;;;;;;;;;;;;;;24.15;55.05;101077.53;5028853;28;866;-74
2021/06/14 05:51:15;;;;;;;;;;;;;;;24.24;55.63;101072.09;5028357;28;799;-75
2021/06/14 05:53:40;;;;;;;;;;;;;;;24.29;55.15;101077.50;5027777;28;1902;-74
2021/06/14 05:56:06;;;;;;;;;;;;;;;24.30;55.05;101077.16;5026452;28;1461;-74
2021/06/14 05:58:31;;;;;;;;;;;;;;;24.35;55.29;101076.25;5027541;28;823;-73
2021/06/14 06:00:56;;;;;;;;;;;;;;;24.37;54.91;101074.00;5027826;28;936;-73
2021/06/14 06:03:21;;;;;;;;;;;;;;;24.43;55.09;101075.50;5027784;28;901;-74
2021/06/14 06:05:47;;;;;;;;;;;;;;;24.35;55.15;101073.50;5027619;28;885;-74
2021/06/14 06:08:12;;;;;;;;;;;;;;;24.22;53.66;101075.16;5028962;28;826;-74
2021/06/14 06:10:37;;;;;;;;;;;;;;;24.00;55.07;101067.66;5029574;28;866;-74
2021/06/14 06:13:03;;;;;;;;;;;;;;;24.09;55.23;101065.81;5028868;28;1445;-74
2021/06/14 06:15:29;;;;;;;;;;;;;;;24.05;53.03;101072.25;5029363;28;1866;-74
2021/06/14 06:17:54;;;;;;;;;;;;;;;23.93;54.02;101070.03;5029291;28;1165;-73
2021/06/14 06:20:19;;;;;;;;;;;;;;;24.13;54.71;101066.81;5029419;28;790;-73
2021/06/14 06:22:45;;;;;;;;;;;;;;;23.68;53.04;101066.69;5048101;28;1068;-73
2021/06/14 06:25:12;;;;;;;;;;;;;;;23.80;54.35;101065.38;5049355;28;1254;-73
2021/06/14 06:27:38;;;;;;;;;;;;;;;23.84;52.79;101060.88;5049003;28;1145;-73
2021/06/14 06:30:04;;;;;;;;;;;;;;;23.82;54.12;101065.88;5049509;28;752;-73
2021/06/14 06:32:30;;;;;;;;;;;;;;;23.92;52.90;101062.91;5049457;28;1256;-73
2021/06/14 06:34:55;;;;;;;;;;;;;;;23.96;54.10;101055.66;5047817;28;1906;-73
2021/06/14 06:37:20;;;;;;;;;;;;;;;24.06;54.02;101054.63;5049083;28;882;-73
2021/06/14 06:39:46;;;;;;;;;;;;;;;24.14;53.62;101053.88;5049099;28;864;-73
2021/06/14 06:42:11;;;;;;;;;;;;;;;24.18;54.17;101054.06;5048850;28;819;-73
2021/06/14 06:44:38;;;;;;;;;;;;;;;24.18;53.87;101043.06;5050842;28;873;-73
2021/06/14 06:47:04;;;;;;;;;;;;;;;24.18;54.39;101052.13;5052804;28;834;-73
2021/06/14 06:49:30;;;;;;;;;;;;;;;24.08;52.66;101041.34;5052817;28;819;-73
2021/06/14 06:51:55;;;;;;;;;;;;;;;23.90;53.76;101049.47;5052682;28;957;-73
2021/06/14 06:54:20;;;;;;;;;;;;;;;23.95;53.20;101048.53;5052391;28;1866;-73
2021/06/14 06:56:48;;;;;;;;;;;;;;;23.71;51.38;101038.56;5052297;28;879;-73
2021/06/14 06:59:14;;;;;;;;;;;;;;;23.63;51.63;101050.28;5052421;28;822;-73
2021/06/14 07:01:39;;;;;;;;;;;;;;;23.88;53.38;101057.19;5052465;28;814;-73
2021/06/14 07:04:05;;;;;;;;;;;;;;;24.13;53.15;101049.50;5052434;28;937;-73
2021/06/14 07:06:30;;;;;;;;;;;;;;;23.78;52.03;101048.38;5052379;28;901;-73
2021/06/14 07:08:58;;;;;;;;;;;;;;;23.89;52.74;101041.53;5052439;28;886;-73
2021/06/14 07:11:28;;;;;;;;;;;;;;;24.13;53.33;101044.00;5052128;28;810;-73
2021/06/14 07:13:53;;;;;;;;;;;;;;;24.31;53.11;101039.44;5052129;28;1887;-73
2021/06/14 07:16:19;;;;;;;;;;;;;;;24.42;52.48;101038.06;5052034;28;1344;-73
2021/06/14 07:18:45;;;;;;;;;;;;;;;24.38;52.65;101037.06;5052221;28;861;-73
2021/06/14 07:21:10;;;;;;;;;;;;;;;24.40;52.31;101042.25;5052383;28;873;-73
2021/06/14 07:23:35;;;;;;;;;;;;;;;24.45;51.82;101037.44;5051884;28;1391;-73
2021/06/14 07:26:01;;;;;;;;;;;;;;;24.47;51.37;101026.94;5051695;28;864;-73
2021/06/14 07:28:26;;;;;;;;;;;;;;;24.40;52.26;101028.50;5051863;28;915;-73
2021/06/14 07:30:52;;;;;;;;;;;;;;;24.27;52.78;101033.75;5051906;28;941;-73
2021/06/14 07:33:17;;;;;;;;;;;;;;;24.42;52.86;101032.56;5051756;28;1435;-73
2021/06/14 07:35:42;;;;;;;;;;;;;;;24.47;52.34;101032.44;5051773;28;1914;-73
2021/06/14 07:38:08;;;;;;;;;;;;;;;24.43;51.67;101031.44;5051774;28;866;-73
2021/06/14 07:40:33;;;;;;;;;;;;;;;24.40;52.72;101014.72;5050149;28;1336;-73
2021/06/14 07:42:59;;;;;;;;;;;;;;;24.28;52.76;101024.34;5051599;28;779;-73
2021/06/14 07:45:25;;;;;;;;;;;;;;;24.27;52.68;101022.75;5051643;28;849;-73
2021/06/14 07:47:51;;;;;;;;;;;;;;;24.49;52.16;101023.88;5050441;28;846;-73
2021/06/14 07:50:17;;;;;;;;;;;;;;;24.54;51.75;101032.03;5049614;28;1226;-73
2021/06/14 07:52:42;;;;;;;;;;;;;;;24.35;52.10;101025.84;5051511;28;786;-73
2021/06/14 07:55:08;;;;;;;;;;;;;;;24.30;52.74;101029.56;5051376;28;1866;-73
2021/06/14 07:57:34;;;;;;;;;;;;;;;24.49;52.49;101024.69;5051105;28;952;-73
2021/06/14 07:59:59;;;;;;;;;;;;;;;24.22;50.98;101030.31;5051800;28;801;-73
2021/06/14 08:02:24;;;;;;;;;;;;;;;23.98;51.11;101033.34;5051352;28;883;-73
2021/06/14 08:04:50;;;;;;;;;;;;;;;24.15;53.39;101041.75;5051388;28;889;-73
2021/06/14 08:07:15;;;;;;;;;;;;;;;24.22;53.10;101033.06;5051261;28;861;-73
2021/06/14 08:09:41;;;;;;;;;;;;;;;24.43;53.14;101033.38;5050983;28;824;-73
2021/06/14 08:12:06;;;;;;;;;;;;;;;24.55;52.84;101030.06;5051138;28;893;-74
2021/06/14 08:14:32;;;;;;;;;;;;;;;24.49;52.64;101030.19;5050977;28;1871;-73
2021/06/14 08:16:57;;;;;;;;;;;;;;;24.48;52.57;101042.31;5050946;28;1267;-73
2021/06/14 08:25:02;;;;;;;;;;;;;;;24.49;52.89;101041.19;5050931;28;862;-73
2021/06/14 08:25:04;;;;;;;;;;;;;;;24.52;52.44;101037.03;5050106;28;1028;-74
2021/06/14 08:27:37;;;;;;;;;;;;;;;24.49;52.29;101043.94;5050450;28;1166;-74
2021/06/14 08:30:07;;;;;;;;;;;;;;;24.49;52.04;101040.41;5052649;28;1570;-74
2021/06/14 08:32:33;;;;;;;;;;;;;;;24.51;51.71;101046.44;5050915;28;1216;-74
2021/06/14 08:34:58;;;;;;;;;;;;;;;24.49;51.91;101041.19;5061661;28;1906;-74
2021/06/14 08:37:24;;;;;;;;;;;;;;;24.47;52.22;101046.22;5062451;28;1116;-74
2021/06/14 08:39:49;;;;;;;;;;;;;;;24.47;52.41;101046.22;5070508;28;798;-74
2021/06/14 08:42:15;;;;;;;;;;;;;;;24.48;51.72;101042.31;5066571;28;1330;-74
2021/06/14 08:44:41;;;;;;;;;;;;;;;24.48;52.08;101034.06;5050198;28;1298;-74
2021/06/14 08:47:08;;;;;;;;;;;;;;;24.48;52.20;101024.97;5050395;28;854;-75
2021/06/14 08:49:33;;;;;;;;;;;;;;;24.49;52.32;101027.44;5050377;28;826;-74
2021/06/14 08:51:59;;;;;;;;;;;;;;;24.52;53.05;101029.56;5049972;28;779;-74
2021/06/14 08:54:25;;;;;;;;;;;;;;;24.50;53.46;101026.31;5048961;28;2272;-74
2021/06/14 08:56:50;;;;;;;;;;;;;;;24.51;53.30;101027.16;5049783;28;1210;-74
2021/06/14 08:59:15;;;;;;;;;;;;;;;24.50;52.92;101022.75;5050190;28;813;-74
2021/06/14 09:01:59;;;;;;;;;;;;;;;24.51;52.24;101019.69;5050387;28;803;-74
2021/06/14 09:04:25;;;;;;;;;;;;;;;24.50;52.70;101012.56;5050372;28;876;-74
2021/06/14 09:06:50;;;;;;;;;;;;;;;24.52;52.68;101017.75;5048729;28;1174;-74
2021/06/14 09:09:15;;;;;;;;;;;;;;;24.52;52.15;101017.75;5049196;28;873;-74
2021/06/14 09:11:51;;;;;;;;;;;;;;;24.53;52.34;101005.63;5048886;28;1188;-74
2021/06/14 09:14:18;;;;;;;;;;;;;;;24.49;52.32;101015.63;5050381;28;2127;-74
2021/06/14 09:16:44;;;;;;;;;;;;;;;24.54;51.92;101010.00;5049815;28;1192;-74
2021/06/14 09:19:41;;;;;;;;;;;;;;;24.34;53.16;101014.03;5049951;28;1026;-74
2021/06/14 09:22:14;;;;;;;;;;;;;;;24.36;52.54;101011.78;5026399;28;1344;-74
2021/06/14 09:24:51;;;;;;;;;;;;;;;24.49;51.50;101008.16;5050236;28;858;-74
2021/06/14 09:27:25;;;;;;;;;;;;;;;24.50;50.95;101003.47;5049100;28;1318;-74
2021/06/14 09:29:50;;;;;;;;;;;;;;;24.49;50.72;101002.66;5046638;28;1481;-74
2021/06/14 09:32:15;;;;;;;;;;;;;;;24.51;51.30;101011.44;5051492;28;1323;-74
2021/06/14 09:34:46;;;;;;;;;;;;;;;24.51;51.55;100996.88;5046844;28;1930;-74
2021/06/14 09:37:12;;;;;;;;;;;;;;;24.51;51.29;101005.13;5047101;28;1195;-74
2021/06/14 09:39:43;;;;;;;;;;;;;;;24.49;51.45;101001.84;5049399;28;810;-74
2021/06/14 09:42:16;;;;;;;;;;;;;;;24.48;50.85;101011.22;5049072;28;1216;-74
2021/06/14 09:44:41;;;;;;;;;;;;;;;24.42;52.26;101012.47;5049767;28;774;-73
2021/06/14 09:47:08;;;;;;;;;;;;;;;24.28;51.78;101015.28;5049618;28;779;-74
2021/06/14 09:49:34;;;;;;;;;;;;;;;24.17;49.58;101031.25;5049509;28;950;-74
2021/06/14 09:51:59;;;;;;;;;;;;;;;24.10;48.63;101017.09;5049560;28;901;-74
2021/06/14 09:54:29;;;;;;;;;;;;;;;24.09;47.08;101020.97;5050401;28;1941;-74
2021/06/14 09:56:55;;;;;;;;;;;;;;;24.08;46.69;101027.59;5053400;28;1361;-74
2021/06/14 09:59:28;;;;;;;;;;;;;;;24.08;46.77;101036.66;5052840;28;1386;-74
2021/06/14 10:02:23;;;;;;;;;;;;;;;24.07;46.66;101024.03;5049203;28;1359;-74
2021/06/14 10:04:54;;;;;;;;;;;;;;;24.03;46.01;101020.28;5044105;28;1321;-74
2021/06/14 10:07:21;;;;;;;;;;;;;;;24.06;46.08;101025.16;5049624;28;1281;-74
2021/06/14 10:09:46;;;;;;;;;;;;;;;24.01;46.15;101022.53;5049478;28;782;-74
2021/06/14 10:12:22;;;;;;;;;;;;;;;24.05;46.07;101015.28;5048985;28;1225;-74
2021/06/14 10:14:48;;;;;;;;;;;;;;;24.08;47.17;101020.16;5049713;28;1882;-73
2021/06/14 10:17:13;;;;;;;;;;;;;;;24.05;48.45;101017.22;5047828;28;1320;-74
2021/06/14 10:19:38;;;;;;;;;;;;;;;24.09;47.98;101009.97;5047644;28;1682;-74
2021/06/14 10:22:04;;;;;;;;;;;;;;;24.08;48.09;101011.91;5043648;28;1636;-74
2021/06/14 10:24:29;;;;;;;;;;;;;;;23.97;45.56;101001.47;5038805;28;1734;-74
2021/06/14 10:26:54;;;;;;;;;;;;;;;23.92;44.93;100994.13;5044184;28;1616;-74
2021/06/14 10:29:20;;;;;;;;;;;;;;;23.91;44.68;101000.75;5041223;28;1638;-74
2021/06/14 10:31:47;;;;;;;;;;;;;;;23.94;44.55;100989.13;5046429;28;1588;-74
2021/06/14 10:34:13;;;;;;;;;;;;;;;23.94;44.77;100980.88;5040336;28;1914;-74
2021/06/14 10:36:39;;;;;;;;;;;;;;;23.97;44.83;100985.75;5040173;28;850;-74
2021/06/14 10:39:05;;;;;;;;;;;;;;;24.00;45.82;100984.31;5036135;28;1707;-74
2021/06/14 10:41:30;;;;;;;;;;;;;;;24.17;47.75;100984.47;5042956;28;1609;-74
2021/06/14 10:43:56;;;;;;;;;;;;;;;24.09;46.94;100997.03;5046554;28;951;-74
2021/06/14 10:46:22;;;;;;;;;;;;;;;24.09;47.31;101005.28;5049192;28;1519;-74
2021/06/14 10:48:52;;;;;;;;;;;;;;;24.18;48.09;101018.28;5038189;28;1766;-75
2021/06/14 10:51:19;;;;;;;;;;;;;;;24.18;48.44;101012.78;5042143;28;1647;-74
2021/06/14 10:53:50;;;;;;;;;;;;;;;24.05;49.19;101022.72;5048463;28;1939;-74
2021/06/14 10:56:16;;;;;;;;;;;;;;;23.93;47.71;101020.53;5040356;28;1623;-75
2021/06/14 10:58:46;;;;;;;;;;;;;;;23.87;49.00;101021.75;5045966;28;1386;-74
2021/06/14 11:01:15;;;;;;;;;;;;;;;23.97;48.15;101024.28;5049884;28;814;-71
2021/06/14 11:03:47;;;;;;;;;;;;;;;23.86;48.94;101020.13;5049620;28;1573;-75
2021/06/14 11:06:15;;;;;;;;;;;;;;;23.73;49.51;101014.31;5051642;28;921;-74
2021/06/14 11:08:41;;;;;;;;;;;;;;;23.81;49.98;101006.50;5051531;28;853;-74
2021/06/14 11:11:06;;;;;;;;;;;;;;;23.95;50.66;101004.53;5051544;28;847;-69
2021/06/14 11:13:32;;;;;;;;;;;;;;;24.13;50.50;101006.28;5051458;28;819;-68
2021/06/14 11:16:01;;;;;;;;;;;;;;;24.22;49.50;100994.53;5052188;28;1108;-70
2021/06/14 11:18:29;;;;;;;;;;;;;;;24.23;51.46;100996.16;5052178;28;814;-72
2021/06/14 11:21:14;;;;;;;;;;;;;;;24.15;50.71;100994.13;5051995;28;1059;-72
2021/06/14 11:23:40;;;;;;;;;;;;;;;24.11;50.31;100986.50;5050779;28;1218;-72
2021/06/14 11:26:06;;;;;;;;;;;;;;;24.12;50.91;100988.13;5051900;28;1095;-79
2021/06/14 11:28:35;;;;;;;;;;;;;;;24.08;50.83;100978.88;5051384;28;1118;-75
2021/06/14 11:31:11;;;;;;;;;;;;;;;24.14;50.48;100979.56;5049136;28;1578;-75
2021/06/14 11:33:37;;;;;;;;;;;;;;;24.05;50.05;100970.44;5049752;28;1973;-74
2021/06/14 11:36:11;;;;;;;;;;;;;;;24.01;49.64;100963.94;5050088;28;1257;-75
2021/06/14 11:38:37;;;;;;;;;;;;;;;24.03;50.22;100961.69;5031877;28;818;-75
2021/06/14 11:41:02;;;;;;;;;;;;;;;23.97;49.84;100951.94;5031992;28;834;-75
2021/06/14 11:43:27;;;;;;;;;;;;;;;23.97;50.13;100957.44;5031775;28;783;-72
2021/06/14 11:45:53;;;;;;;;;;;;;;;24.08;52.33;100954.09;5046674;28;1217;-74
2021/06/14 11:48:20;;;;;;;;;;;;;;;24.08;51.79;100950.56;5030081;28;858;-74
2021/06/14 11:50:46;;;;;;;;;;;;;;;24.12;53.31;100937.78;5031183;28;1512;-74
2021/06/14 11:53:11;;;;;;;;;;;;;;;24.18;54.30;100933.78;5030663;28;927;-74
2021/06/14 11:55:38;;;;;;;;;;;;;;;24.20;54.81;100934.28;5030720;28;1874;-74
2021/06/14 11:58:04;;;;;;;;;;;;;;;24.27;56.24;100931.91;5030539;28;1060;-73
2021/06/14 12:00:34;;;;;;;;;;;;;;;24.21;52.00;100929.59;5049433;28;1368;-73
2021/06/14 12:03:00;;;;;;;;;;;;;;;24.18;52.66;100924.72;5049263;28;849;-73
2021/06/14 12:05:35;;;;;;;;;;;;;;;24.21;55.78;100933.16;5050844;28;1215;-73
2021/06/14 12:08:02;;;;;;;;;;;;;;;24.21;51.73;100943.38;5048093;28;901;-70
2021/06/14 12:10:27;;;;;;;;;;;;;;;24.23;51.00;100949.38;5048835;28;842;-73
2021/06/14 12:13:10;;;;;;;;;;;;;;;24.11;50.15;100945.25;5049178;28;1312;-76
2021/06/14 12:15:37;;;;;;;;;;;;;;;24.20;49.06;100936.22;5052050;28;1878;-74
2021/06/14 12:18:02;;;;;;;;;;;;;;;24.24;48.83;100939.97;5052355;28;1481;-76
2021/06/14 12:20:29;;;;;;;;;;;;;;;24.23;49.23;100927.34;5058491;28;1316;-75
2021/06/14 12:23:02;;;;;;;;;;;;;;;24.22;48.38;100942.22;5050814;28;869;-77
2021/06/14 12:25:28;;;;;;;;;;;;;;;24.22;46.66;100937.53;5051018;28;885;-74
2021/06/14 12:27:58;;;;;;;;;;;;;;;24.26;49.27;100943.22;5050666;28;1252;-74
2021/06/14 12:30:25;;;;;;;;;;;;;;;24.27;48.30;100942.13;5050422;28;844;-74
2021/06/14 12:32:51;;;;;;;;;;;;;;;24.30;51.74;100955.22;5050667;28;1139;-71
2021/06/14 12:35:16;;;;;;;;;;;;;;;24.25;48.41;100958.13;5050544;28;1914;-75
2021/06/14 12:37:42;;;;;;;;;;;;;;;24.24;48.95;100962.00;5050675;28;791;-76
2021/06/14 12:40:09;;;;;;;;;;;;;;;24.20;47.02;100977.50;5050485;28;862;-75
2021/06/14 12:42:36;;;;;;;;;;;;;;;24.20;47.78;101002.28;5050609;28;877;-75
2021/06/14 12:45:05;;;;;;;;;;;;;;;24.19;46.66;101019.94;5049735;28;1592;-76
2021/06/14 12:47:31;;;;;;;;;;;;;;;24.17;46.19;101038.69;5050345;28;1100;-76
2021/06/14 12:49:58;;;;;;;;;;;;;;;24.20;46.29;101041.63;5050053;28;1175;-78
2021/06/14 12:52:29;;;;;;;;;;;;;;;24.19;47.27;101039.19;5050499;28;853;-72